首页
METAR-TAF:

METAR-TAF

机场 :

布利斯堡, 得克萨斯州, 美国

纬度: 31-50-58N, 经度: 106-22-48W, 海拔: 1203米

当前天气观测

该预报发布于35分钟前的00:55 UTC
风速9节,风向西,有时为25节阵风
温度 34°C
湿度 7%
气压 1011 hPa
能見度: 11.3公里
少量云层高于28000英尺

METAR: KBIF 210055Z 27009G25KT 7SM FEW280 34/M07 A2985 RMK AO2A SLP985 ALSTG/SLP ESTMD WND DATA ESTMD T03381068 $

时间: 19:30 (01:30 UTC)

预报

该预报发布于6小时和30分钟前的19:00 UTC
预报有效从20日的 19点(UTC)到 22日的 01点(UTC)
风速10节,风向西,有时为20节阵风
能见度10公里或以上
少量云层高于20000英尺
成为
从 20日的 21点(UTC)到 20日的 22点(UTC)
风速20节,风向西,有时为30节阵风
能见度10公里或以上
天空无云
成为
从 21日的 06点(UTC)到 21日的 07点(UTC)
风速10节,风向西,有时为20节阵风
能见度10公里或以上
少量云层高于15000英尺
成为
从 21日的 09点(UTC)到 21日的 10点(UTC)
风速10节,风向西转西北,有时为15节阵风
能见度10公里或以上
天空无云
成为
从 21日的 20点(UTC)到 21日的 21点(UTC)
风速10节,风向西转西南,有时为20节阵风
能见度10公里或以上
天空无云

TAF: KBIF 201900Z 2019/2201 27010G20KT 9999 FEW200 510009 510903 QNH2990INS BECMG 2021/2022 26020G30KT 9999 SKC 510009 510903 QNH2986INS BECMG 2106/2107 27010G20KT 9999 FEW150 520009 520903 QNH2989INS BECMG 2109/2110 29010G15KT 9999 SKC 520009 520909 QNH2995INS BECMG 2120/2121 25010G20KT 9999 SKC 510009 QNH2990INS TX35/2020Z TN23/2111Z

超过4000个机场的气象观测和天气预报(METAR&TAF报告)。

可查询的气象台以黄色和红色小点在地图上表示。

将鼠标移到小点上方,可查看气象台名称。

然后点击查看天气观测和预报。

如需切换地图:点击带黑十字的绿色按钮放大地图;点击带横线的绿色按钮缩小地图;或者点击绿色箭头查看邻近地区的地图。


METAR-TAF: